Time;durP1;ratioP1;P1;durP2;ratioP2;P2;SDS_P1;SDS_P2;PMS_P1;PMS_P2;Temp;Humidity;BMP_temperature;BMP_pressure;BME280_temperature;BME280_humidity;BME280_pressure;Samples;Min_cycle;Max_cycle;Signal;HPM_P1;HPM_P2
2022/08/24 00:02:22;;;;;;;;;;;;;;;;;;5071367;28;20011;-61
2022/08/24 00:04:49;;;;;;;;;;;;;;;;;;5074275;28;19925;-63
2022/08/24 00:07:19;;;;;;;;;;;;;;;;;;5074451;28;19924;-62
2022/08/24 00:09:46;;;;;;;;;;;;;;;;;;5073597;28;20336;-62
2022/08/24 00:12:15;;;;;;;;;;;;;;;;;;5074431;28;19943;-62
2022/08/24 00:14:42;;;;;;;;;;;;;;;;;;5074228;28;20044;-62
2022/08/24 00:17:08;;;;;;;;;;;;;;;;;;5074322;28;19978;-61
2022/08/24 00:19:35;;;;;;;;;;;;;;;;;;5073917;28;19928;-61
2022/08/24 00:22:01;;;;;;;;;;;;;;;;;;5074343;28;19997;-62
2022/08/24 00:24:28;;;;;;;;;;;;;;;;;;5073993;28;19997;-62
2022/08/24 00:26:55;;;;;;;;;;;;;;;;;;5074248;28;19947;-62
2022/08/24 00:29:23;;;;;;;;;;;;;;;;;;5073588;28;20447;-61
2022/08/24 00:31:50;;;;;;;;;;;;;;;;;;5073847;28;19924;-61
2022/08/24 00:34:17;;;;;;;;;;;;;;;;;;5073924;28;20551;-61
2022/08/24 00:36:44;;;;;;;;;;;;;;;;;;5073839;28;20035;-61
2022/08/24 00:39:11;;;;;;;;;;;;;;;;;;5073448;28;19978;-62
2022/08/24 00:41:40;;;;;;;;;;;;;;;;;;5073752;28;19928;-62
2022/08/24 00:44:07;;;;;;;;;;;;;;;;;;5073525;28;19971;-62
2022/08/24 00:46:38;;;;;;;;;;;;;;;;;;5073768;28;20386;-62
2022/08/24 00:49:06;;;;;;;;;;;;;;;;;;5073382;28;19924;-61
2022/08/24 00:51:36;;;;;;;;;;;;;;;;;;5073574;28;20014;-61
2022/08/24 00:54:05;;;;;;;;;;;;;;;;;;5073351;28;19929;-61
2022/08/24 00:56:34;;;;;;;;;;;;;;;;;;5073371;28;19928;-59
2022/08/24 00:59:02;;;;;;;;;;;;;;;;;;5073244;28;19939;-61
2022/08/24 01:01:31;;;;;;;;;;;;;;;;;;5062951;28;19967;-61
2022/08/24 01:03:59;;;;;;;;;;;;;;;;;;5053204;28;19925;-62
2022/08/24 01:06:25;;;;;;;;;;;;;;;;;;5053331;28;20496;-61
2022/08/24 01:08:52;;;;;;;;;;;;;;;;;;5053003;28;19932;-61
2022/08/24 01:11:21;;;;;;;;;;;;;;;;;;5052849;28;19925;-62
2022/08/24 01:13:48;;;;;;;;;;;;;;;;;;5052946;28;19971;-62
2022/08/24 01:18:48;;;;;;;;;;;;;;;;;;5053446;28;20002;-61
2022/08/24 01:19:06;;;;;;;;;;;;;;;;;;5052717;28;20400;-61
2022/08/24 01:21:36;;;;;;;;;;;;;;;;;;5053363;28;19971;-62
2022/08/24 01:24:05;;;;;;;;;;;;;;;;;;5053200;28;19932;-62
2022/08/24 01:26:33;;;;;;;;;;;;;;;;;;5052957;28;19929;-62
2022/08/24 01:29:02;;;;;;;;;;;;;;;;;;5052737;28;19975;-61
2022/08/24 01:31:29;;;;;;;;;;;;;;;;;;5052947;28;19934;-61
2022/08/24 01:33:56;;;;;;;;;;;;;;;;;;5052627;28;19931;-61
2022/08/24 01:36:26;;;;;;;;;;;;;;;;;;5053007;28;19928;-62
2022/08/24 01:38:53;;;;;;;;;;;;;;;;;;5052806;28;20372;-61
2022/08/24 01:41:21;;;;;;;;;;;;;;;;;;5052402;28;19979;-62
2022/08/24 01:43:47;;;;;;;;;;;;;;;;;;5052725;28;19925;-61
2022/08/24 01:46:14;;;;;;;;;;;;;;;;;;5052678;28;19924;-61
2022/08/24 01:48:41;;;;;;;;;;;;;;;;;;5052635;28;19978;-62
2022/08/24 01:51:07;;;;;;;;;;;;;;;;;;5052338;28;19924;-62
2022/08/24 01:53:34;;;;;;;;;;;;;;;;;;5052376;28;19925;-62
2022/08/24 01:56:00;;;;;;;;;;;;;;;;;;5052413;28;19928;-61
2022/08/24 01:58:28;;;;;;;;;;;;;;;;;;5052540;28;19929;-61
2022/08/24 02:00:58;;;;;;;;;;;;;;;;;;5057226;28;19928;-61
2022/08/24 02:03:25;;;;;;;;;;;;;;;;;;5072630;28;19924;-60
2022/08/24 02:05:51;;;;;;;;;;;;;;;;;;5072368;28;19925;-61
2022/08/24 02:08:18;;;;;;;;;;;;;;;;;;5072266;28;20016;-60
2022/08/24 02:10:45;;;;;;;;;;;;;;;;;;5072036;28;19932;-61
2022/08/24 02:13:11;;;;;;;;;;;;;;;;;;5071545;28;19924;-61
2022/08/24 02:15:39;;;;;;;;;;;;;;;;;;5072279;28;19925;-62
2022/08/24 02:18:06;;;;;;;;;;;;;;;;;;5072300;28;19983;-62
2022/08/24 02:20:35;;;;;;;;;;;;;;;;;;5071984;28;20419;-61
2022/08/24 02:23:02;;;;;;;;;;;;;;;;;;5072311;28;20419;-61
2022/08/24 02:25:29;;;;;;;;;;;;;;;;;;5072347;28;20378;-61
2022/08/24 02:27:56;;;;;;;;;;;;;;;;;;5072457;28;20015;-61
2022/08/24 02:30:24;;;;;;;;;;;;;;;;;;5071942;28;19997;-62
2022/08/24 02:32:52;;;;;;;;;;;;;;;;;;5071908;28;19950;-62
2022/08/24 02:35:18;;;;;;;;;;;;;;;;;;5072123;28;19995;-62
2022/08/24 02:37:45;;;;;;;;;;;;;;;;;;5072176;28;19929;-62
2022/08/24 02:40:12;;;;;;;;;;;;;;;;;;5071777;28;19929;-62
2022/08/24 02:42:38;;;;;;;;;;;;;;;;;;5072057;28;20332;-62
2022/08/24 02:45:06;;;;;;;;;;;;;;;;;;5072009;28;19978;-62
2022/08/24 02:47:32;;;;;;;;;;;;;;;;;;5072087;28;20298;-62
2022/08/24 02:50:03;;;;;;;;;;;;;;;;;;5071660;28;19925;-61
2022/08/24 02:52:29;;;;;;;;;;;;;;;;;;5071891;28;19954;-61
2022/08/24 02:54:56;;;;;;;;;;;;;;;;;;5071864;28;19932;-62
2022/08/24 02:57:22;;;;;;;;;;;;;;;;;;5071985;28;19928;-60
2022/08/24 02:59:49;;;;;;;;;;;;;;;;;;5071597;28;19977;-61
2022/08/24 03:02:17;;;;;;;;;;;;;;;;;;5055612;28;19929;-61
2022/08/24 03:04:44;;;;;;;;;;;;;;;;;;5051728;28;20011;-61
2022/08/24 03:07:11;;;;;;;;;;;;;;;;;;5051694;28;19929;-63
2022/08/24 03:09:38;;;;;;;;;;;;;;;;;;5051454;28;19970;-61
2022/08/24 03:12:05;;;;;;;;;;;;;;;;;;5051920;28;19986;-62
2022/08/24 03:14:32;;;;;;;;;;;;;;;;;;5051768;28;19932;-62
2022/08/24 03:16:58;;;;;;;;;;;;;;;;;;5051497;28;19924;-62
2022/08/24 03:19:25;;;;;;;;;;;;;;;;;;5051322;28;19933;-61
2022/08/24 03:21:52;;;;;;;;;;;;;;;;;;5051696;28;19932;-62
2022/08/24 03:24:20;;;;;;;;;;;;;;;;;;5052073;28;19929;-60
2022/08/24 03:26:47;;;;;;;;;;;;;;;;;;5055187;28;19929;-61
2022/08/24 03:29:13;;;;;;;;;;;;;;;;;;5055168;28;20389;-64
2022/08/24 03:31:40;;;;;;;;;;;;;;;;;;5055127;28;20409;-63
2022/08/24 03:34:06;;;;;;;;;;;;;;;;;;5055134;28;20459;-63
2022/08/24 03:36:33;;;;;;;;;;;;;;;;;;5055246;28;19925;-62
2022/08/24 03:38:59;;;;;;;;;;;;;;;;;;5055092;28;20008;-61
2022/08/24 03:41:27;;;;;;;;;;;;;;;;;;5054949;28;19924;-61
2022/08/24 03:43:55;;;;;;;;;;;;;;;;;;5054911;28;19928;-62
2022/08/24 03:46:24;;;;;;;;;;;;;;;;;;5055119;28;20336;-61
2022/08/24 03:48:51;;;;;;;;;;;;;;;;;;5054970;28;20377;-59
2022/08/24 03:51:19;;;;;;;;;;;;;;;;;;5054585;28;19924;-61
2022/08/24 03:53:46;;;;;;;;;;;;;;;;;;5054878;28;19924;-62
2022/08/24 03:56:13;;;;;;;;;;;;;;;;;;5054775;28;20464;-61
2022/08/24 03:58:41;;;;;;;;;;;;;;;;;;5054958;28;19925;-61
2022/08/24 04:01:08;;;;;;;;;;;;;;;;;;5061303;28;20012;-62
2022/08/24 04:03:35;;;;;;;;;;;;;;;;;;5074547;28;19928;-61
2022/08/24 04:06:02;;;;;;;;;;;;;;;;;;5074628;28;19932;-61
2022/08/24 04:08:28;;;;;;;;;;;;;;;;;;5074570;28;19924;-62
2022/08/24 04:10:55;;;;;;;;;;;;;;;;;;5074410;28;20285;-60
2022/08/24 04:13:22;;;;;;;;;;;;;;;;;;5074503;28;19924;-62
2022/08/24 04:15:51;;;;;;;;;;;;;;;;;;5074550;28;19924;-60
2022/08/24 04:18:18;;;;;;;;;;;;;;;;;;5074484;28;19925;-62
2022/08/24 04:20:45;;;;;;;;;;;;;;;;;;5073974;28;20397;-60
2022/08/24 04:23:12;;;;;;;;;;;;;;;;;;5074377;28;19924;-60
2022/08/24 04:25:39;;;;;;;;;;;;;;;;;;5074308;28;19931;-61
2022/08/24 04:28:06;;;;;;;;;;;;;;;;;;5074136;28;20021;-60
2022/08/24 04:30:32;;;;;;;;;;;;;;;;;;5073799;28;19948;-61
2022/08/24 04:33:00;;;;;;;;;;;;;;;;;;5073867;28;19924;-62
2022/08/24 04:35:27;;;;;;;;;;;;;;;;;;5074080;28;20004;-62
2022/08/24 04:37:54;;;;;;;;;;;;;;;;;;5073347;28;19946;-62
2022/08/24 04:40:20;;;;;;;;;;;;;;;;;;5073546;28;19925;-63
2022/08/24 04:42:47;;;;;;;;;;;;;;;;;;5073770;28;19924;-62
2022/08/24 04:45:14;;;;;;;;;;;;;;;;;;5074075;28;19933;-62
2022/08/24 04:47:43;;;;;;;;;;;;;;;;;;5073894;28;19930;-61
2022/08/24 04:50:11;;;;;;;;;;;;;;;;;;5073764;28;20006;-61
2022/08/24 04:52:38;;;;;;;;;;;;;;;;;;5073692;28;19978;-61
2022/08/24 04:55:05;;;;;;;;;;;;;;;;;;5073740;28;20344;-60
2022/08/24 04:57:33;;;;;;;;;;;;;;;;;;5074053;28;19972;-61
2022/08/24 04:59:59;;;;;;;;;;;;;;;;;;5073476;28;20373;-63
2022/08/24 05:02:26;;;;;;;;;;;;;;;;;;5056045;28;20325;-60
2022/08/24 05:04:54;;;;;;;;;;;;;;;;;;5053564;28;20401;-61
2022/08/24 05:07:22;;;;;;;;;;;;;;;;;;5053725;28;19979;-61
2022/08/24 05:09:48;;;;;;;;;;;;;;;;;;5053181;28;20113;-61
2022/08/24 05:12:15;;;;;;;;;;;;;;;;;;5053400;28;19929;-60
2022/08/24 05:14:41;;;;;;;;;;;;;;;;;;5053297;28;19925;-61
2022/08/24 05:17:08;;;;;;;;;;;;;;;;;;5053459;28;20305;-61
2022/08/24 05:19:34;;;;;;;;;;;;;;;;;;5053098;28;20443;-63
2022/08/24 05:22:01;;;;;;;;;;;;;;;;;;5053300;28;19929;-62
2022/08/24 05:24:29;;;;;;;;;;;;;;;;;;5053198;28;20000;-62
2022/08/24 05:26:56;;;;;;;;;;;;;;;;;;5053219;28;19925;-60
2022/08/24 05:29:23;;;;;;;;;;;;;;;;;;5053159;28;19932;-62
2022/08/24 05:31:49;;;;;;;;;;;;;;;;;;5053035;28;19980;-61
2022/08/24 05:34:16;;;;;;;;;;;;;;;;;;5052940;28;20381;-60
2022/08/24 05:36:42;;;;;;;;;;;;;;;;;;5053104;28;20275;-60
2022/08/24 05:39:10;;;;;;;;;;;;;;;;;;5052728;28;20540;-62
2022/08/24 05:41:39;;;;;;;;;;;;;;;;;;5052852;28;20377;-61
2022/08/24 05:44:06;;;;;;;;;;;;;;;;;;5052937;28;20332;-62
2022/08/24 05:46:33;;;;;;;;;;;;;;;;;;5053142;28;19925;-62
2022/08/24 05:49:00;;;;;;;;;;;;;;;;;;5053034;28;19929;-61
2022/08/24 05:51:26;;;;;;;;;;;;;;;;;;5052953;28;19925;-61
2022/08/24 05:53:53;;;;;;;;;;;;;;;;;;5053017;28;20283;-61
2022/08/24 05:56:20;;;;;;;;;;;;;;;;;;5053100;28;20002;-58
2022/08/24 05:58:47;;;;;;;;;;;;;;;;;;5052754;28;19925;-61
2022/08/24 06:01:15;;;;;;;;;;;;;;;;;;5060165;28;19970;-62
2022/08/24 06:03:42;;;;;;;;;;;;;;;;;;5072690;28;20015;-63
2022/08/24 06:06:09;;;;;;;;;;;;;;;;;;5072575;28;19931;-62
2022/08/24 06:08:37;;;;;;;;;;;;;;;;;;5085047;22;20401;-76
2022/08/24 06:11:03;;;;;;;;;;;;;;;;;;5052607;28;20259;-76
2022/08/24 06:13:30;;;;;;;;;;;;;;;;;;5052321;28;19968;-74
2022/08/24 06:16:05;;;;;;;;;;;;;;;;;;5053340;28;19968;-75
2022/08/24 06:18:32;;;;;;;;;;;;;;;;;;5052333;28;19987;-74
2022/08/24 06:20:58;;;;;;;;;;;;;;;;;;5052453;28;19931;-74
2022/08/24 06:23:25;;;;;;;;;;;;;;;;;;5052342;28;19983;-74
2022/08/24 06:28:35;;;;;;;;;;;;;;;;;;5052326;28;20437;-74
2022/08/24 06:31:03;;;;;;;;;;;;;;;;;;5052093;28;19924;-74
2022/08/24 06:33:30;;;;;;;;;;;;;;;;;;5052359;28;19933;-75
2022/08/24 06:35:57;;;;;;;;;;;;;;;;;;5052175;28;20015;-74
2022/08/24 06:38:23;;;;;;;;;;;;;;;;;;5052309;28;19929;-74
2022/08/24 06:40:50;;;;;;;;;;;;;;;;;;5051967;28;19965;-75
2022/08/24 06:43:16;;;;;;;;;;;;;;;;;;5052860;28;20028;-75
2022/08/24 06:45:43;;;;;;;;;;;;;;;;;;5052925;28;20296;-75
2022/08/24 06:48:10;;;;;;;;;;;;;;;;;;5052166;28;20028;-75
2022/08/24 06:50:38;;;;;;;;;;;;;;;;;;5052036;28;19924;-75
2022/08/24 06:53:05;;;;;;;;;;;;;;;;;;5052343;28;19931;-75
2022/08/24 06:55:31;;;;;;;;;;;;;;;;;;5052551;28;20021;-75
2022/08/24 06:57:57;;;;;;;;;;;;;;;;;;5052501;28;20011;-75
2022/08/24 07:00:24;;;;;;;;;;;;;;;;;;5053655;28;20509;-75
2022/08/24 07:02:51;;;;;;;;;;;;;;;;;;5036513;28;20303;-75
2022/08/24 07:05:17;;;;;;;;;;;;;;;;;;5036040;28;19929;-75
2022/08/24 07:07:46;;;;;;;;;;;;;;;;;;5035878;28;19926;-75
2022/08/24 07:10:12;;;;;;;;;;;;;;;;;;5035699;28;19925;-75
2022/08/24 07:12:39;;;;;;;;;;;;;;;;;;5035952;28;20028;-75
2022/08/24 07:15:06;;;;;;;;;;;;;;;;;;5035924;28;19964;-75
2022/08/24 07:17:32;;;;;;;;;;;;;;;;;;5035818;28;20400;-75
2022/08/24 07:19:59;;;;;;;;;;;;;;;;;;5035691;28;19937;-75
2022/08/24 07:22:25;;;;;;;;;;;;;;;;;;5036142;28;19932;-75
2022/08/24 07:24:53;;;;;;;;;;;;;;;;;;5035687;28;20380;-75
2022/08/24 07:27:19;;;;;;;;;;;;;;;;;;5035813;28;20019;-75
2022/08/24 07:29:46;;;;;;;;;;;;;;;;;;5035547;28;19932;-75
2022/08/24 07:32:12;;;;;;;;;;;;;;;;;;5036054;28;20007;-74
2022/08/24 07:34:39;;;;;;;;;;;;;;;;;;5035864;28;20452;-74
2022/08/24 07:37:06;;;;;;;;;;;;;;;;;;5035831;28;19925;-74
2022/08/24 07:39:33;;;;;;;;;;;;;;;;;;5035417;28;20434;-75
2022/08/24 07:42:00;;;;;;;;;;;;;;;;;;5035727;28;20020;-75
2022/08/24 07:44:27;;;;;;;;;;;;;;;;;;5035638;28;19972;-75
2022/08/24 07:46:54;;;;;;;;;;;;;;;;;;5035748;28;19992;-75
2022/08/24 07:49:20;;;;;;;;;;;;;;;;;;5035474;28;19975;-75
2022/08/24 07:51:47;;;;;;;;;;;;;;;;;;5035302;28;20375;-74
2022/08/24 07:54:14;;;;;;;;;;;;;;;;;;5035289;28;20023;-74
2022/08/24 07:56:40;;;;;;;;;;;;;;;;;;5035574;28;20020;-75
2022/08/24 07:59:08;;;;;;;;;;;;;;;;;;5035060;28;19956;-75
2022/08/24 08:01:35;;;;;;;;;;;;;;;;;;5045709;28;19986;-74
2022/08/24 08:04:01;;;;;;;;;;;;;;;;;;5055160;28;19925;-74
2022/08/24 08:06:28;;;;;;;;;;;;;;;;;;5055676;28;20023;-75
2022/08/24 08:08:54;;;;;;;;;;;;;;;;;;5054622;28;19929;-76
2022/08/24 08:11:21;;;;;;;;;;;;;;;;;;5054859;28;19963;-76
2022/08/24 08:13:47;;;;;;;;;;;;;;;;;;5054948;28;20024;-76
2022/08/24 08:16:15;;;;;;;;;;;;;;;;;;5054852;28;20228;-75
2022/08/24 08:18:42;;;;;;;;;;;;;;;;;;5054813;28;19972;-76
2022/08/24 08:24:13;;;;;;;;;;;;;;;;;;5054420;28;19929;-75
2022/08/24 08:26:40;;;;;;;;;;;;;;;;;;5054169;28;19998;-76
2022/08/24 08:29:06;;;;;;;;;;;;;;;;;;5053971;28;19925;-75
2022/08/24 08:31:34;;;;;;;;;;;;;;;;;;5054821;28;20035;-75
2022/08/24 08:34:01;;;;;;;;;;;;;;;;;;5054309;28;19924;-76
2022/08/24 08:36:27;;;;;;;;;;;;;;;;;;5054349;28;20007;-76
2022/08/24 08:38:54;;;;;;;;;;;;;;;;;;5053871;28;19951;-76
2022/08/24 08:41:43;;;;;;;;;;;;;;;;;;5054003;28;20020;-76
2022/08/24 08:44:15;;;;;;;;;;;;;;;;;;5054689;28;20011;-76
2022/08/24 08:46:51;;;;;;;;;;;;;;;;;;5055503;28;19933;-76
2022/08/24 08:49:39;;;;;;;;;;;;;;;;;;5054786;28;20395;-76
2022/08/24 08:52:23;;;;;;;;;;;;;;;;;;5051498;28;19931;-76
2022/08/24 08:54:55;;;;;;;;;;;;;;;;;;5054768;28;19932;-76
2022/08/24 08:57:27;;;;;;;;;;;;;;;;;;5054251;28;19950;-75
2022/08/24 09:00:09;;;;;;;;;;;;;;;;;;5054004;28;19948;-76
2022/08/24 09:02:53;;;;;;;;;;;;;;;;;;5035290;28;19932;-76
2022/08/24 09:05:34;;;;;;;;;;;;;;;;;;5023826;28;20240;-76
2022/08/24 09:08:07;;;;;;;;;;;;;;;;;;5033780;28;20346;-76
2022/08/24 09:10:47;;;;;;;;;;;;;;;;;;5033381;28;20016;-76
2022/08/24 09:13:22;;;;;;;;;;;;;;;;;;5033912;28;19925;-76
2022/08/24 09:16:16;;;;;;;;;;;;;;;;;;5033708;28;19935;-76
2022/08/24 09:18:50;;;;;;;;;;;;;;;;;;5033398;28;20016;-76
2022/08/24 09:21:31;;;;;;;;;;;;;;;;;;5033254;28;19926;-76
2022/08/24 09:24:02;;;;;;;;;;;;;;;;;;5033112;28;19925;-76
2022/08/24 09:26:31;;;;;;;;;;;;;;;;;;5034012;28;20023;-76
2022/08/24 09:29:02;;;;;;;;;;;;;;;;;;5033523;28;19925;-76
2022/08/24 09:31:42;;;;;;;;;;;;;;;;;;5033574;28;19933;-75
2022/08/24 09:34:17;;;;;;;;;;;;;;;;;;5033231;28;19936;-77
2022/08/24 09:36:54;;;;;;;;;;;;;;;;;;5033031;28;20015;-76
2022/08/24 09:39:34;;;;;;;;;;;;;;;;;;5033181;28;19960;-74
2022/08/24 09:42:17;;;;;;;;;;;;;;;;;;5033593;28;20024;-74
2022/08/24 09:44:54;;;;;;;;;;;;;;;;;;5033430;28;19925;-75
2022/08/24 09:47:34;;;;;;;;;;;;;;;;;;5032894;28;19972;-75
2022/08/24 09:50:07;;;;;;;;;;;;;;;;;;5032665;28;19971;-74
2022/08/24 09:52:47;;;;;;;;;;;;;;;;;;5033185;28;19925;-75
2022/08/24 09:55:22;;;;;;;;;;;;;;;;;;5032853;28;20016;-75
2022/08/24 09:57:57;;;;;;;;;;;;;;;;;;5032951;28;19925;-75
2022/08/24 10:00:26;;;;;;;;;;;;;;;;;;5032947;28;19995;-76
2022/08/24 10:02:58;;;;;;;;;;;;;;;;;;5052816;28;19931;-75
2022/08/24 10:05:30;;;;;;;;;;;;;;;;;;5053547;28;19925;-75
2022/08/24 10:08:04;;;;;;;;;;;;;;;;;;5053644;28;20339;-76
2022/08/24 10:10:36;;;;;;;;;;;;;;;;;;5052634;28;20294;-75
2022/08/24 10:13:07;;;;;;;;;;;;;;;;;;5052604;28;19925;-75
2022/08/24 10:15:37;;;;;;;;;;;;;;;;;;5052573;28;19932;-76
2022/08/24 10:18:11;;;;;;;;;;;;;;;;;;5052791;28;19986;-76
2022/08/24 10:20:49;;;;;;;;;;;;;;;;;;5053470;28;20011;-76
2022/08/24 10:23:31;;;;;;;;;;;;;;;;;;5053807;28;20015;-75
2022/08/24 10:26:01;;;;;;;;;;;;;;;;;;5053314;28;19970;-76
2022/08/24 10:28:39;;;;;;;;;;;;;;;;;;5054905;28;19925;-75
2022/08/24 10:31:06;;;;;;;;;;;;;;;;;;5053668;28;19925;-75
2022/08/24 10:33:37;;;;;;;;;;;;;;;;;;5054391;28;20015;-75
2022/08/24 10:36:22;;;;;;;;;;;;;;;;;;5057414;28;20296;-75
2022/08/24 10:41:56;;;;;;;;;;;;;;;;;;5058025;28;19990;-75
2022/08/24 10:44:40;;;;;;;;;;;;;;;;;;5052106;28;19925;-76
2022/08/24 10:47:11;;;;;;;;;;;;;;;;;;5046365;28;20015;-76
2022/08/24 10:50:03;;;;;;;;;;;;;;;;;;5056627;28;19969;-75
2022/08/24 10:52:48;;;;;;;;;;;;;;;;;;5057192;28;20023;-75
2022/08/24 10:55:19;;;;;;;;;;;;;;;;;;5056406;28;20027;-76
2022/08/24 10:57:54;;;;;;;;;;;;;;;;;;5056642;28;19925;-76
2022/08/24 11:00:26;;;;;;;;;;;;;;;;;;5056543;28;20023;-76
2022/08/24 11:03:04;;;;;;;;;;;;;;;;;;5056515;28;19967;-75
2022/08/24 11:05:35;;;;;;;;;;;;;;;;;;5056825;28;20012;-76
2022/08/24 11:08:06;;;;;;;;;;;;;;;;;;5057278;28;20000;-76
2022/08/24 11:10:35;;;;;;;;;;;;;;;;;;5057482;28;19960;-76
2022/08/24 11:13:13;;;;;;;;;;;;;;;;;;5057675;28;20327;-76
2022/08/24 11:15:46;;;;;;;;;;;;;;;;;;5057012;28;19956;-76
2022/08/24 11:18:12;;;;;;;;;;;;;;;;;;5057610;28;19925;-76
2022/08/24 11:20:40;;;;;;;;;;;;;;;;;;5057107;28;20271;-75
2022/08/24 11:23:07;;;;;;;;;;;;;;;;;;5056909;28;19971;-76
2022/08/24 11:25:37;;;;;;;;;;;;;;;;;;5056730;28;19924;-76
2022/08/24 11:28:04;;;;;;;;;;;;;;;;;;5058250;28;20391;-76
2022/08/24 11:30:31;;;;;;;;;;;;;;;;;;5056133;28;20007;-76
2022/08/24 11:32:59;;;;;;;;;;;;;;;;;;5056431;28;20012;-76
2022/08/24 11:35:26;;;;;;;;;;;;;;;;;;5056364;28;20015;-75
2022/08/24 11:37:54;;;;;;;;;;;;;;;;;;5055871;28;20364;-76
2022/08/24 11:40:23;;;;;;;;;;;;;;;;;;5055384;28;19972;-76
2022/08/24 11:42:56;;;;;;;;;;;;;;;;;;5055404;28;20379;-76
2022/08/24 11:45:27;;;;;;;;;;;;;;;;;;5055479;28;19924;-75
2022/08/24 11:48:02;;;;;;;;;;;;;;;;;;5055666;28;20008;-75
2022/08/24 11:50:32;;;;;;;;;;;;;;;;;;5055634;28;19928;-75
2022/08/24 11:53:11;;;;;;;;;;;;;;;;;;5055838;28;19979;-75
2022/08/24 11:55:40;;;;;;;;;;;;;;;;;;5055583;28;19975;-75
2022/08/24 11:58:11;;;;;;;;;;;;;;;;;;5056120;28;19932;-75
2022/08/24 12:00:44;;;;;;;;;;;;;;;;;;5055801;28;19925;-75
2022/08/24 12:03:18;;;;;;;;;;;;;;;;;;5055969;28;20288;-75
2022/08/24 12:05:48;;;;;;;;;;;;;;;;;;5056318;28;19932;-74
2022/08/24 12:08:17;;;;;;;;;;;;;;;;;;5056439;28;19931;-75
2022/08/24 12:10:49;;;;;;;;;;;;;;;;;;5055958;28;19979;-75
2022/08/24 12:13:25;;;;;;;;;;;;;;;;;;5056109;28;19972;-76
2022/08/24 12:15:54;;;;;;;;;;;;;;;;;;5056205;28;19928;-75
2022/08/24 12:18:27;;;;;;;;;;;;;;;;;;5055961;28;19929;-75
2022/08/24 12:20:54;;;;;;;;;;;;;;;;;;5055416;28;19971;-75
2022/08/24 12:23:24;;;;;;;;;;;;;;;;;;5055884;28;20283;-74
2022/08/24 12:26:03;;;;;;;;;;;;;;;;;;5055854;28;19931;-75
2022/08/24 12:28:34;;;;;;;;;;;;;;;;;;5055759;28;20402;-75
2022/08/24 12:31:06;;;;;;;;;;;;;;;;;;5055153;28;19976;-75
2022/08/24 12:33:33;;;;;;;;;;;;;;;;;;5055058;28;19925;-75
2022/08/24 12:36:03;;;;;;;;;;;;;;;;;;5055236;28;19964;-75
2022/08/24 12:38:33;;;;;;;;;;;;;;;;;;5055245;28;19948;-75
2022/08/24 12:41:02;;;;;;;;;;;;;;;;;;5055293;28;19943;-75
2022/08/24 12:43:31;;;;;;;;;;;;;;;;;;5055233;28;19924;-75
2022/08/24 12:46:00;;;;;;;;;;;;;;;;;;5055163;28;20016;-75
2022/08/24 12:48:31;;;;;;;;;;;;;;;;;;5055059;28;19979;-75
2022/08/24 12:51:05;;;;;;;;;;;;;;;;;;5055432;28;20015;-76
2022/08/24 12:53:42;;;;;;;;;;;;;;;;;;5054685;28;19964;-75
2022/08/24 12:56:19;;;;;;;;;;;;;;;;;;5055188;28;20015;-75
2022/08/24 12:58:51;;;;;;;;;;;;;;;;;;5054062;28;20019;-75
2022/08/24 13:01:20;;;;;;;;;;;;;;;;;;5054552;28;19925;-75
2022/08/24 13:03:48;;;;;;;;;;;;;;;;;;5054506;28;20045;-76
2022/08/24 13:06:18;;;;;;;;;;;;;;;;;;5054737;28;19925;-75
2022/08/24 13:08:46;;;;;;;;;;;;;;;;;;5054264;28;19924;-76
2022/08/24 13:11:14;;;;;;;;;;;;;;;;;;5054374;28;19944;-75
2022/08/24 13:13:47;;;;;;;;;;;;;;;;;;5054664;28;19964;-75
2022/08/24 13:16:28;;;;;;;;;;;;;;;;;;5054277;28;20028;-75
2022/08/24 13:19:16;;;;;;;;;;;;;;;;;;5053493;28;20396;-75
2022/08/24 13:21:46;;;;;;;;;;;;;;;;;;5054874;28;19929;-75
2022/08/24 13:24:31;;;;;;;;;;;;;;;;;;5053979;28;20411;-75
2022/08/24 13:26:57;;;;;;;;;;;;;;;;;;5054349;28;19931;-75
2022/08/24 13:29:25;;;;;;;;;;;;;;;;;;5054053;28;20430;-75
2022/08/24 13:31:55;;;;;;;;;;;;;;;;;;5054024;28;19967;-75
2022/08/24 13:34:39;;;;;;;;;;;;;;;;;;5054149;28;19925;-75
2022/08/24 13:37:14;;;;;;;;;;;;;;;;;;5054049;28;20331;-75
2022/08/24 13:40:00;;;;;;;;;;;;;;;;;;5053439;28;19929;-75
2022/08/24 13:42:30;;;;;;;;;;;;;;;;;;5053798;28;19935;-75
2022/08/24 13:45:14;;;;;;;;;;;;;;;;;;5053899;28;20091;-75
2022/08/24 13:47:49;;;;;;;;;;;;;;;;;;5052980;28;20585;-76
2022/08/24 13:50:28;;;;;;;;;;;;;;;;;;5053920;28;19968;-76
2022/08/24 13:53:03;;;;;;;;;;;;;;;;;;5054592;28;19925;-76
2022/08/24 13:55:37;;;;;;;;;;;;;;;;;;5054139;28;19960;-75
2022/08/24 13:58:10;;;;;;;;;;;;;;;;;;5053666;28;19925;-75
2022/08/24 14:00:39;;;;;;;;;;;;;;;;;;5051036;28;19931;-76
2022/08/24 14:03:28;;;;;;;;;;;;;;;;;;5034027;28;19994;-77
2022/08/24 14:05:56;;;;;;;;;;;;;;;;;;5034440;28;19971;-76
2022/08/24 14:08:48;;;;;;;;;;;;;;;;;;5033788;28;20406;-76
2022/08/24 14:11:18;;;;;;;;;;;;;;;;;;5033576;28;20024;-76
2022/08/24 14:13:52;;;;;;;;;;;;;;;;;;5033795;28;19929;-76
2022/08/24 14:19:19;;;;;;;;;;;;;;;;;;5033202;28;20068;-76
2022/08/24 14:21:49;;;;;;;;;;;;;;;;;;5033160;28;19925;-76
2022/08/24 14:24:24;;;;;;;;;;;;;;;;;;5033315;28;19985;-76
2022/08/24 14:27:01;;;;;;;;;;;;;;;;;;5033733;28;19929;-76
2022/08/24 14:29:29;;;;;;;;;;;;;;;;;;5032867;28;20395;-76
2022/08/24 14:32:16;;;;;;;;;;;;;;;;;;5033640;28;20327;-77
2022/08/24 14:34:47;;;;;;;;;;;;;;;;;;5027607;28;20378;-75
2022/08/24 14:37:19;;;;;;;;;;;;;;;;;;5033313;28;19997;-77
2022/08/24 14:39:50;;;;;;;;;;;;;;;;;;5032836;28;19973;-75
2022/08/24 14:42:17;;;;;;;;;;;;;;;;;;5032879;28;20000;-75
2022/08/24 14:44:50;;;;;;;;;;;;;;;;;;5032508;28;19925;-75
2022/08/24 14:47:22;;;;;;;;;;;;;;;;;;5032981;28;19925;-75
2022/08/24 14:50:01;;;;;;;;;;;;;;;;;;5032144;28;19932;-75
2022/08/24 14:52:41;;;;;;;;;;;;;;;;;;5032392;28;19932;-76
2022/08/24 14:55:12;;;;;;;;;;;;;;;;;;5032636;28;19932;-75
2022/08/24 14:57:44;;;;;;;;;;;;;;;;;;5033017;28;19925;-75
2022/08/24 15:00:13;;;;;;;;;;;;;;;;;;5032874;28;19925;-75
2022/08/24 15:02:51;;;;;;;;;;;;;;;;;;5051472;28;19924;-75
2022/08/24 15:05:22;;;;;;;;;;;;;;;;;;5052150;28;20551;-76
2022/08/24 15:07:53;;;;;;;;;;;;;;;;;;5051829;28;20291;-78
2022/08/24 15:10:25;;;;;;;;;;;;;;;;;;5051939;28;20019;-77
2022/08/24 15:12:53;;;;;;;;;;;;;;;;;;5051963;28;19928;-75
2022/08/24 15:15:24;;;;;;;;;;;;;;;;;;5052701;28;19931;-76
2022/08/24 15:17:57;;;;;;;;;;;;;;;;;;5052418;28;19994;-75
2022/08/24 15:20:31;;;;;;;;;;;;;;;;;;5053076;28;20015;-76
2022/08/24 15:23:00;;;;;;;;;;;;;;;;;;5056081;28;20035;-76
2022/08/24 15:25:33;;;;;;;;;;;;;;;;;;5055736;28;20311;-76
2022/08/24 15:28:06;;;;;;;;;;;;;;;;;;5055715;28;19931;-76
2022/08/24 15:30:34;;;;;;;;;;;;;;;;;;5055547;28;19974;-75
2022/08/24 15:33:04;;;;;;;;;;;;;;;;;;5056422;28;19948;-75
2022/08/24 15:35:32;;;;;;;;;;;;;;;;;;5057167;28;19924;-76
2022/08/24 15:38:15;;;;;;;;;;;;;;;;;;5056262;28;19931;-75
2022/08/24 15:40:43;;;;;;;;;;;;;;;;;;5055929;28;19962;-76
2022/08/24 15:43:10;;;;;;;;;;;;;;;;;;5056139;28;20606;-76
2022/08/24 15:45:40;;;;;;;;;;;;;;;;;;5055769;28;19924;-77
2022/08/24 15:48:07;;;;;;;;;;;;;;;;;;5055503;28;20013;-76
2022/08/24 15:50:39;;;;;;;;;;;;;;;;;;5055297;28;19980;-76
2022/08/24 15:53:07;;;;;;;;;;;;;;;;;;5055613;28;20016;-76
2022/08/24 15:55:35;;;;;;;;;;;;;;;;;;5055861;28;19932;-76
2022/08/24 15:58:20;;;;;;;;;;;;;;;;;;5055229;28;20026;-77
2022/08/24 16:03:43;;;;;;;;;;;;;;;;;;5035186;28;19952;-75
2022/08/24 16:06:16;;;;;;;;;;;;;;;;;;5035475;28;19975;-75
2022/08/24 16:08:54;;;;;;;;;;;;;;;;;;5035500;28;19973;-75
2022/08/24 16:11:26;;;;;;;;;;;;;;;;;;5035475;28;20031;-76
2022/08/24 16:13:54;;;;;;;;;;;;;;;;;;5036424;28;20363;-74
2022/08/24 16:16:29;;;;;;;;;;;;;;;;;;5036959;28;19968;-75
2022/08/24 16:18:58;;;;;;;;;;;;;;;;;;5037065;28;20404;-76
2022/08/24 16:21:28;;;;;;;;;;;;;;;;;;5037519;28;19929;-76
2022/08/24 16:23:58;;;;;;;;;;;;;;;;;;5038282;28;20291;-76
2022/08/24 16:26:26;;;;;;;;;;;;;;;;;;5039332;28;19930;-76
2022/08/24 16:28:54;;;;;;;;;;;;;;;;;;5036855;28;19925;-77
2022/08/24 16:31:41;;;;;;;;;;;;;;;;;;5035218;28;19979;-76
2022/08/24 16:34:16;;;;;;;;;;;;;;;;;;5029822;28;19972;-76
2022/08/24 16:36:42;;;;;;;;;;;;;;;;;;5035615;28;20020;-75
2022/08/24 16:39:10;;;;;;;;;;;;;;;;;;5034741;28;20015;-77
2022/08/24 16:41:38;;;;;;;;;;;;;;;;;;5034411;28;20016;-76
2022/08/24 16:44:07;;;;;;;;;;;;;;;;;;5034202;28;19925;-76
2022/08/24 16:46:34;;;;;;;;;;;;;;;;;;5034584;28;20016;-77
2022/08/24 16:49:00;;;;;;;;;;;;;;;;;;5034302;28;19925;-76
2022/08/24 16:51:27;;;;;;;;;;;;;;;;;;5033764;28;20357;-76
2022/08/24 16:53:54;;;;;;;;;;;;;;;;;;5034193;28;20358;-76
2022/08/24 16:56:20;;;;;;;;;;;;;;;;;;5034419;28;20019;-76
2022/08/24 16:58:47;;;;;;;;;;;;;;;;;;5034160;28;20011;-76
2022/08/24 17:01:15;;;;;;;;;;;;;;;;;;5041687;28;20015;-76
2022/08/24 17:03:42;;;;;;;;;;;;;;;;;;5054666;28;19976;-75
2022/08/24 17:06:11;;;;;;;;;;;;;;;;;;5053999;28;19925;-75
2022/08/24 17:08:37;;;;;;;;;;;;;;;;;;5053542;28;19928;-76
2022/08/24 17:11:04;;;;;;;;;;;;;;;;;;5053400;28;19979;-76
2022/08/24 17:13:30;;;;;;;;;;;;;;;;;;5053582;28;19925;-76
2022/08/24 17:15:58;;;;;;;;;;;;;;;;;;5053448;28;19931;-77
2022/08/24 17:18:26;;;;;;;;;;;;;;;;;;5053901;28;20023;-76
2022/08/24 17:20:53;;;;;;;;;;;;;;;;;;5053069;28;19987;-76